sensor_id;sensor_type;location;lat;lon;timestamp;temperature;humidity
16517;DHT22;8371;52.272;9.746;2023-07-02T00:01:43;18.80;76.90
16517;DHT22;8371;52.272;9.746;2023-07-02T00:04:09;18.80;77.00
16517;DHT22;8371;52.272;9.746;2023-07-02T00:06:35;18.80;76.90
16517;DHT22;8371;52.272;9.746;2023-07-02T00:09:03;18.80;76.80
16517;DHT22;8371;52.272;9.746;2023-07-02T00:11:30;18.80;76.80
16517;DHT22;8371;52.272;9.746;2023-07-02T00:13:55;18.70;76.70
16517;DHT22;8371;52.272;9.746;2023-07-02T00:16:21;18.80;76.80
16517;DHT22;8371;52.272;9.746;2023-07-02T00:18:46;18.70;76.70
16517;DHT22;8371;52.272;9.746;2023-07-02T00:21:14;18.80;76.80
16517;DHT22;8371;52.272;9.746;2023-07-02T00:23:40;18.70;76.70
16517;DHT22;8371;52.272;9.746;2023-07-02T00:26:06;18.70;77.50
16517;DHT22;8371;52.272;9.746;2023-07-02T00:28:31;18.70;76.70
16517;DHT22;8371;52.272;9.746;2023-07-02T00:30:57;18.70;76.70
16517;DHT22;8371;52.272;9.746;2023-07-02T00:33:23;18.60;76.60
16517;DHT22;8371;52.272;9.746;2023-07-02T00:35:49;18.60;76.70
16517;DHT22;8371;52.272;9.746;2023-07-02T00:38:15;18.60;76.60
16517;DHT22;8371;52.272;9.746;2023-07-02T00:40:41;18.60;76.70
16517;DHT22;8371;52.272;9.746;2023-07-02T00:43:07;18.60;76.70
16517;DHT22;8371;52.272;9.746;2023-07-02T00:45:35;18.60;76.70
16517;DHT22;8371;52.272;9.746;2023-07-02T00:48:01;18.50;76.70
16517;DHT22;8371;52.272;9.746;2023-07-02T00:50:27;18.50;76.70
16517;DHT22;8371;52.272;9.746;2023-07-02T00:52:55;18.50;76.70
16517;DHT22;8371;52.272;9.746;2023-07-02T00:55:20;18.40;76.60
16517;DHT22;8371;52.272;9.746;2023-07-02T00:57:46;18.40;76.70
16517;DHT22;8371;52.272;9.746;2023-07-02T01:00:13;18.40;76.70
16517;DHT22;8371;52.272;9.746;2023-07-02T01:02:39;18.40;76.80
16517;DHT22;8371;52.272;9.746;2023-07-02T01:05:07;18.40;76.60
16517;DHT22;8371;52.272;9.746;2023-07-02T01:07:33;18.40;76.60
16517;DHT22;8371;52.272;9.746;2023-07-02T01:09:58;18.30;76.50
16517;DHT22;8371;52.272;9.746;2023-07-02T01:12:24;18.20;76.40
16517;DHT22;8371;52.272;9.746;2023-07-02T01:14:53;18.30;76.60
16517;DHT22;8371;52.272;9.746;2023-07-02T01:17:21;18.10;76.50
16517;DHT22;8371;52.272;9.746;2023-07-02T01:19:52;18.10;76.50
16517;DHT22;8371;52.272;9.746;2023-07-02T01:22:20;18.00;76.50
16517;DHT22;8371;52.272;9.746;2023-07-02T01:24:47;17.90;76.60
16517;DHT22;8371;52.272;9.746;2023-07-02T01:27:14;17.90;77.40
16517;DHT22;8371;52.272;9.746;2023-07-02T01:29:40;17.80;76.70
16517;DHT22;8371;52.272;9.746;2023-07-02T01:32:07;17.80;76.80
16517;DHT22;8371;52.272;9.746;2023-07-02T01:34:34;17.70;76.90
16517;DHT22;8371;52.272;9.746;2023-07-02T01:37:01;17.60;76.90
16517;DHT22;8371;52.272;9.746;2023-07-02T01:39:27;17.60;77.00
16517;DHT22;8371;52.272;9.746;2023-07-02T01:41:55;17.50;77.30
16517;DHT22;8371;52.272;9.746;2023-07-02T01:44:22;17.50;77.40
16517;DHT22;8371;52.272;9.746;2023-07-02T01:46:48;17.40;77.90
16517;DHT22;8371;52.272;9.746;2023-07-02T01:49:18;17.30;77.50
16517;DHT22;8371;52.272;9.746;2023-07-02T01:51:51;17.30;77.50
16517;DHT22;8371;52.272;9.746;2023-07-02T01:54:18;17.20;77.60
16517;DHT22;8371;52.272;9.746;2023-07-02T01:56:44;17.20;77.70
16517;DHT22;8371;52.272;9.746;2023-07-02T01:59:11;17.10;77.70
16517;DHT22;8371;52.272;9.746;2023-07-02T02:01:37;17.00;77.90
16517;DHT22;8371;52.272;9.746;2023-07-02T02:04:05;17.20;78.30
16517;DHT22;8371;52.272;9.746;2023-07-02T02:06:31;17.00;78.30
16517;DHT22;8371;52.272;9.746;2023-07-02T02:08:57;17.00;78.60
16517;DHT22;8371;52.272;9.746;2023-07-02T02:11:23;17.00;78.90
16517;DHT22;8371;52.272;9.746;2023-07-02T02:13:49;17.10;79.30
16517;DHT22;8371;52.272;9.746;2023-07-02T02:16:15;17.10;79.30
16517;DHT22;8371;52.272;9.746;2023-07-02T02:18:41;17.20;79.40
16517;DHT22;8371;52.272;9.746;2023-07-02T02:21:07;17.10;79.40
16517;DHT22;8371;52.272;9.746;2023-07-02T02:23:32;17.20;79.50
16517;DHT22;8371;52.272;9.746;2023-07-02T02:25:58;17.10;79.70
16517;DHT22;8371;52.272;9.746;2023-07-02T02:28:24;17.20;79.60
16517;DHT22;8371;52.272;9.746;2023-07-02T02:30:49;17.20;79.60
16517;DHT22;8371;52.272;9.746;2023-07-02T02:33:15;17.20;79.70
16517;DHT22;8371;52.272;9.746;2023-07-02T02:35:41;17.20;79.90
16517;DHT22;8371;52.272;9.746;2023-07-02T02:38:06;17.20;79.80
16517;DHT22;8371;52.272;9.746;2023-07-02T02:40:32;17.30;79.90
16517;DHT22;8371;52.272;9.746;2023-07-02T02:42:58;17.30;79.80
16517;DHT22;8371;52.272;9.746;2023-07-02T02:45:24;17.20;79.80
16517;DHT22;8371;52.272;9.746;2023-07-02T02:47:49;17.40;79.90
16517;DHT22;8371;52.272;9.746;2023-07-02T02:50:15;17.30;79.80
16517;DHT22;8371;52.272;9.746;2023-07-02T02:52:41;17.30;79.70
16517;DHT22;8371;52.272;9.746;2023-07-02T02:55:08;17.40;80.00
16517;DHT22;8371;52.272;9.746;2023-07-02T02:57:34;17.30;80.60
16517;DHT22;8371;52.272;9.746;2023-07-02T03:00:00;17.30;79.90
16517;DHT22;8371;52.272;9.746;2023-07-02T03:02:25;17.30;80.00
16517;DHT22;8371;52.272;9.746;2023-07-02T03:04:51;17.30;80.00
16517;DHT22;8371;52.272;9.746;2023-07-02T03:07:17;17.30;80.30
16517;DHT22;8371;52.272;9.746;2023-07-02T03:09:43;17.30;80.30
16517;DHT22;8371;52.272;9.746;2023-07-02T03:12:09;17.30;80.30
16517;DHT22;8371;52.272;9.746;2023-07-02T03:14:34;17.30;80.40
16517;DHT22;8371;52.272;9.746;2023-07-02T03:17:00;17.40;80.70
16517;DHT22;8371;52.272;9.746;2023-07-02T03:19:26;17.40;80.70
16517;DHT22;8371;52.272;9.746;2023-07-02T03:21:51;17.40;81.40
16517;DHT22;8371;52.272;9.746;2023-07-02T03:24:18;17.40;80.70
16517;DHT22;8371;52.272;9.746;2023-07-02T03:26:44;17.40;80.70
16517;DHT22;8371;52.272;9.746;2023-07-02T03:29:10;17.40;80.70
16517;DHT22;8371;52.272;9.746;2023-07-02T03:31:37;17.40;80.70
16517;DHT22;8371;52.272;9.746;2023-07-02T03:34:06;17.50;80.90
16517;DHT22;8371;52.272;9.746;2023-07-02T03:36:31;17.50;81.00
16517;DHT22;8371;52.272;9.746;2023-07-02T03:38:57;17.50;81.00
16517;DHT22;8371;52.272;9.746;2023-07-02T03:41:23;17.50;81.00
16517;DHT22;8371;52.272;9.746;2023-07-02T03:43:48;17.50;81.80
16517;DHT22;8371;52.272;9.746;2023-07-02T03:46:14;17.60;81.10
16517;DHT22;8371;52.272;9.746;2023-07-02T03:48:40;17.60;81.10
16517;DHT22;8371;52.272;9.746;2023-07-02T03:51:06;17.60;81.20
16517;DHT22;8371;52.272;9.746;2023-07-02T03:53:32;17.70;81.30
16517;DHT22;8371;52.272;9.746;2023-07-02T03:55:57;17.70;81.30
16517;DHT22;8371;52.272;9.746;2023-07-02T03:58:23;18.00;81.40
16517;DHT22;8371;52.272;9.746;2023-07-02T04:00:49;17.80;81.30
16517;DHT22;8371;52.272;9.746;2023-07-02T04:03:15;17.80;81.20
16517;DHT22;8371;52.272;9.746;2023-07-02T04:05:42;17.80;81.20
16517;DHT22;8371;52.272;9.746;2023-07-02T04:08:08;18.00;81.30
16517;DHT22;8371;52.272;9.746;2023-07-02T04:10:34;17.90;81.30
16517;DHT22;8371;52.272;9.746;2023-07-02T04:13:00;17.90;81.30
16517;DHT22;8371;52.272;9.746;2023-07-02T04:15:25;18.00;81.30
16517;DHT22;8371;52.272;9.746;2023-07-02T04:17:52;18.00;81.30
16517;DHT22;8371;52.272;9.746;2023-07-02T04:20:19;18.00;81.30
16517;DHT22;8371;52.272;9.746;2023-07-02T04:22:45;18.10;81.40
16517;DHT22;8371;52.272;9.746;2023-07-02T04:25:12;18.10;81.50
16517;DHT22;8371;52.272;9.746;2023-07-02T04:27:41;18.10;81.50
16517;DHT22;8371;52.272;9.746;2023-07-02T04:30:09;18.10;81.20
16517;DHT22;8371;52.272;9.746;2023-07-02T04:32:40;18.10;81.20
16517;DHT22;8371;52.272;9.746;2023-07-02T04:35:08;18.10;81.30
16517;DHT22;8371;52.272;9.746;2023-07-02T04:37:34;18.10;81.20
16517;DHT22;8371;52.272;9.746;2023-07-02T04:40:00;18.10;81.30
16517;DHT22;8371;52.272;9.746;2023-07-02T04:42:27;18.10;81.30
16517;DHT22;8371;52.272;9.746;2023-07-02T04:44:53;18.10;81.30
16517;DHT22;8371;52.272;9.746;2023-07-02T04:47:20;18.10;81.00
16517;DHT22;8371;52.272;9.746;2023-07-02T04:49:46;18.10;80.60
16517;DHT22;8371;52.272;9.746;2023-07-02T04:52:11;18.00;80.20
16517;DHT22;8371;52.272;9.746;2023-07-02T04:54:37;18.00;80.00
16517;DHT22;8371;52.272;9.746;2023-07-02T04:57:03;18.00;79.60
16517;DHT22;8371;52.272;9.746;2023-07-02T04:59:29;17.90;79.40
16517;DHT22;8371;52.272;9.746;2023-07-02T05:01:55;17.80;79.20
16517;DHT22;8371;52.272;9.746;2023-07-02T05:04:21;17.80;79.10
16517;DHT22;8371;52.272;9.746;2023-07-02T05:06:46;17.70;79.20
16517;DHT22;8371;52.272;9.746;2023-07-02T05:09:12;17.70;79.20
16517;DHT22;8371;52.272;9.746;2023-07-02T05:11:38;17.60;79.20
16517;DHT22;8371;52.272;9.746;2023-07-02T05:14:03;17.60;79.30
16517;DHT22;8371;52.272;9.746;2023-07-02T05:16:29;17.60;79.50
16517;DHT22;8371;52.272;9.746;2023-07-02T05:18:55;17.60;79.60
16517;DHT22;8371;52.272;9.746;2023-07-02T05:21:20;17.50;79.90
16517;DHT22;8371;52.272;9.746;2023-07-02T05:23:47;17.50;79.90
16517;DHT22;8371;52.272;9.746;2023-07-02T05:26:13;17.50;80.00
16517;DHT22;8371;52.272;9.746;2023-07-02T05:28:38;17.50;80.10
16517;DHT22;8371;52.272;9.746;2023-07-02T05:31:04;17.40;80.20
16517;DHT22;8371;52.272;9.746;2023-07-02T05:33:29;17.50;80.30
16517;DHT22;8371;52.272;9.746;2023-07-02T05:35:57;17.60;80.40
16517;DHT22;8371;52.272;9.746;2023-07-02T05:38:23;17.60;80.50
16517;DHT22;8371;52.272;9.746;2023-07-02T05:40:50;17.60;80.80
16517;DHT22;8371;52.272;9.746;2023-07-02T05:43:15;17.60;81.00
16517;DHT22;8371;52.272;9.746;2023-07-02T05:45:41;17.70;81.10
16517;DHT22;8371;52.272;9.746;2023-07-02T05:48:07;17.70;81.00
16517;DHT22;8371;52.272;9.746;2023-07-02T05:50:32;17.80;80.90
16517;DHT22;8371;52.272;9.746;2023-07-02T05:52:59;17.80;80.90
16517;DHT22;8371;52.272;9.746;2023-07-02T05:55:24;17.90;80.80
16517;DHT22;8371;52.272;9.746;2023-07-02T05:57:50;17.90;81.00
16517;DHT22;8371;52.272;9.746;2023-07-02T06:00:16;18.00;81.30
16517;DHT22;8371;52.272;9.746;2023-07-02T06:02:42;18.10;81.40
16517;DHT22;8371;52.272;9.746;2023-07-02T06:05:08;18.30;81.60
16517;DHT22;8371;52.272;9.746;2023-07-02T06:07:34;18.40;81.60
16517;DHT22;8371;52.272;9.746;2023-07-02T06:09:59;18.50;81.50
16517;DHT22;8371;52.272;9.746;2023-07-02T06:12:25;18.60;81.40
16517;DHT22;8371;52.272;9.746;2023-07-02T06:14:51;18.90;81.60
16517;DHT22;8371;52.272;9.746;2023-07-02T06:17:16;19.00;81.70
16517;DHT22;8371;52.272;9.746;2023-07-02T06:19:44;19.20;81.10
16517;DHT22;8371;52.272;9.746;2023-07-02T06:22:10;19.40;81.20
16517;DHT22;8371;52.272;9.746;2023-07-02T06:24:35;19.50;81.30
16517;DHT22;8371;52.272;9.746;2023-07-02T06:27:01;19.80;81.40
16517;DHT22;8371;52.272;9.746;2023-07-02T06:29:27;20.00;81.10
16517;DHT22;8371;52.272;9.746;2023-07-02T06:31:54;20.20;80.60
16517;DHT22;8371;52.272;9.746;2023-07-02T06:34:20;20.40;80.40
16517;DHT22;8371;52.272;9.746;2023-07-02T06:36:45;20.60;80.00
16517;DHT22;8371;52.272;9.746;2023-07-02T06:39:11;20.80;79.80
16517;DHT22;8371;52.272;9.746;2023-07-02T06:41:37;21.00;79.50
16517;DHT22;8371;52.272;9.746;2023-07-02T06:44:03;21.30;78.80
16517;DHT22;8371;52.272;9.746;2023-07-02T06:46:29;21.30;78.30
16517;DHT22;8371;52.272;9.746;2023-07-02T06:48:55;21.50;77.70
16517;DHT22;8371;52.272;9.746;2023-07-02T06:51:21;21.60;77.50
16517;DHT22;8371;52.272;9.746;2023-07-02T06:53:47;21.80;77.10
16517;DHT22;8371;52.272;9.746;2023-07-02T06:56:13;21.90;76.70
16517;DHT22;8371;52.272;9.746;2023-07-02T06:58:41;22.10;76.30
16517;DHT22;8371;52.272;9.746;2023-07-02T07:01:07;22.10;76.30
16517;DHT22;8371;52.272;9.746;2023-07-02T07:03:34;22.20;75.90
16517;DHT22;8371;52.272;9.746;2023-07-02T07:06:00;22.40;76.00
16517;DHT22;8371;52.272;9.746;2023-07-02T07:08:25;22.50;75.50
16517;DHT22;8371;52.272;9.746;2023-07-02T07:10:51;22.60;75.00
16517;DHT22;8371;52.272;9.746;2023-07-02T07:13:17;22.70;75.00
16517;DHT22;8371;52.272;9.746;2023-07-02T07:15:42;22.80;74.60
16517;DHT22;8371;52.272;9.746;2023-07-02T07:18:09;22.90;74.00
16517;DHT22;8371;52.272;9.746;2023-07-02T07:20:35;23.00;74.00
16517;DHT22;8371;52.272;9.746;2023-07-02T07:23:05;23.10;73.70
16517;DHT22;8371;52.272;9.746;2023-07-02T07:25:31;23.20;73.10
16517;DHT22;8371;52.272;9.746;2023-07-02T07:27:59;23.30;72.20
16517;DHT22;8371;52.272;9.746;2023-07-02T07:30:24;23.40;71.00
16517;DHT22;8371;52.272;9.746;2023-07-02T07:32:51;23.40;71.20
16517;DHT22;8371;52.272;9.746;2023-07-02T07:35:22;23.50;70.90
16517;DHT22;8371;52.272;9.746;2023-07-02T07:37:48;23.60;70.50
16517;DHT22;8371;52.272;9.746;2023-07-02T07:40:14;23.60;70.60
16517;DHT22;8371;52.272;9.746;2023-07-02T07:42:43;23.70;70.50
16517;DHT22;8371;52.272;9.746;2023-07-02T07:45:10;23.80;70.40
16517;DHT22;8371;52.272;9.746;2023-07-02T07:47:35;23.90;70.10
16517;DHT22;8371;52.272;9.746;2023-07-02T07:50:01;24.10;69.70
16517;DHT22;8371;52.272;9.746;2023-07-02T07:52:27;24.10;69.40
16517;DHT22;8371;52.272;9.746;2023-07-02T07:54:53;24.30;68.00
16517;DHT22;8371;52.272;9.746;2023-07-02T07:57:19;24.40;67.70
16517;DHT22;8371;52.272;9.746;2023-07-02T07:59:44;24.50;66.60
16517;DHT22;8371;52.272;9.746;2023-07-02T08:02:10;24.50;66.80
16517;DHT22;8371;52.272;9.746;2023-07-02T08:04:35;24.60;67.30
16517;DHT22;8371;52.272;9.746;2023-07-02T08:07:01;24.70;67.10
16517;DHT22;8371;52.272;9.746;2023-07-02T08:09:29;24.80;65.60
16517;DHT22;8371;52.272;9.746;2023-07-02T08:11:54;24.80;65.40
16517;DHT22;8371;52.272;9.746;2023-07-02T08:14:20;24.90;65.30
16517;DHT22;8371;52.272;9.746;2023-07-02T08:16:46;24.90;64.30
16517;DHT22;8371;52.272;9.746;2023-07-02T08:19:12;25.00;64.00
16517;DHT22;8371;52.272;9.746;2023-07-02T08:21:37;25.10;63.40
16517;DHT22;8371;52.272;9.746;2023-07-02T08:24:03;25.10;62.60
16517;DHT22;8371;52.272;9.746;2023-07-02T08:26:29;25.10;60.60
16517;DHT22;8371;52.272;9.746;2023-07-02T08:28:55;25.10;61.10
16517;DHT22;8371;52.272;9.746;2023-07-02T08:31:20;25.20;62.00
16517;DHT22;8371;52.272;9.746;2023-07-02T08:33:46;25.20;61.00
16517;DHT22;8371;52.272;9.746;2023-07-02T08:36:13;25.20;59.90
16517;DHT22;8371;52.272;9.746;2023-07-02T08:38:39;25.10;60.00
16517;DHT22;8371;52.272;9.746;2023-07-02T08:41:07;25.10;59.70
16517;DHT22;8371;52.272;9.746;2023-07-02T08:43:33;25.00;59.50
16517;DHT22;8371;52.272;9.746;2023-07-02T08:46:01;24.90;59.80
16517;DHT22;8371;52.272;9.746;2023-07-02T08:48:27;24.90;60.00
16517;DHT22;8371;52.272;9.746;2023-07-02T08:50:58;24.90;60.30
16517;DHT22;8371;52.272;9.746;2023-07-02T08:53:23;24.90;59.80
16517;DHT22;8371;52.272;9.746;2023-07-02T08:55:51;25.00;60.30
16517;DHT22;8371;52.272;9.746;2023-07-02T08:58:17;25.00;59.80
16517;DHT22;8371;52.272;9.746;2023-07-02T09:01:12;25.10;59.30
16517;DHT22;8371;52.272;9.746;2023-07-02T09:03:35;25.20;59.00
16517;DHT22;8371;52.272;9.746;2023-07-02T09:06:04;25.20;58.50
16517;DHT22;8371;52.272;9.746;2023-07-02T09:08:29;25.20;57.30
16517;DHT22;8371;52.272;9.746;2023-07-02T09:11:11;25.10;58.40
16517;DHT22;8371;52.272;9.746;2023-07-02T09:13:52;25.10;57.80
16517;DHT22;8371;52.272;9.746;2023-07-02T09:19:07;25.20;57.20
16517;DHT22;8371;52.272;9.746;2023-07-02T09:21:45;25.10;56.90
16517;DHT22;8371;52.272;9.746;2023-07-02T09:24:13;25.10;56.00
16517;DHT22;8371;52.272;9.746;2023-07-02T09:26:44;25.00;56.60
16517;DHT22;8371;52.272;9.746;2023-07-02T09:29:09;25.00;56.00
16517;DHT22;8371;52.272;9.746;2023-07-02T09:31:48;25.10;56.40
16517;DHT22;8371;52.272;9.746;2023-07-02T09:34:14;25.10;55.50
16517;DHT22;8371;52.272;9.746;2023-07-02T09:36:40;25.20;56.00
16517;DHT22;8371;52.272;9.746;2023-07-02T09:39:13;25.40;56.70
16517;DHT22;8371;52.272;9.746;2023-07-02T09:41:43;25.40;56.20
16517;DHT22;8371;52.272;9.746;2023-07-02T09:44:09;25.60;55.20
16517;DHT22;8371;52.272;9.746;2023-07-02T09:46:41;25.70;55.40
16517;DHT22;8371;52.272;9.746;2023-07-02T09:49:11;25.80;55.30
16517;DHT22;8371;52.272;9.746;2023-07-02T09:51:37;25.90;54.60
16517;DHT22;8371;52.272;9.746;2023-07-02T09:54:03;26.00;54.70
16517;DHT22;8371;52.272;9.746;2023-07-02T09:56:29;26.10;54.40
16517;DHT22;8371;52.272;9.746;2023-07-02T09:58:55;26.10;54.10
16517;DHT22;8371;52.272;9.746;2023-07-02T10:01:20;26.10;53.10
16517;DHT22;8371;52.272;9.746;2023-07-02T10:03:46;26.10;53.50
16517;DHT22;8371;52.272;9.746;2023-07-02T10:06:12;26.10;53.00
16517;DHT22;8371;52.272;9.746;2023-07-02T10:08:37;26.20;53.90
16517;DHT22;8371;52.272;9.746;2023-07-02T10:11:10;26.30;52.50
16517;DHT22;8371;52.272;9.746;2023-07-02T10:13:37;26.30;52.70
16517;DHT22;8371;52.272;9.746;2023-07-02T10:16:03;26.50;52.80
16517;DHT22;8371;52.272;9.746;2023-07-02T10:18:29;26.60;52.00
16517;DHT22;8371;52.272;9.746;2023-07-02T10:20:55;26.80;50.70
16517;DHT22;8371;52.272;9.746;2023-07-02T10:23:32;26.80;50.80
16517;DHT22;8371;52.272;9.746;2023-07-02T10:25:58;26.90;51.30
16517;DHT22;8371;52.272;9.746;2023-07-02T10:28:25;27.00;50.50
16517;DHT22;8371;52.272;9.746;2023-07-02T10:30:52;27.10;50.50
16517;DHT22;8371;52.272;9.746;2023-07-02T10:33:19;27.10;50.60
16517;DHT22;8371;52.272;9.746;2023-07-02T10:35:47;27.20;51.00
16517;DHT22;8371;52.272;9.746;2023-07-02T10:38:19;27.10;50.20
16517;DHT22;8371;52.272;9.746;2023-07-02T10:40:45;27.00;49.60
16517;DHT22;8371;52.272;9.746;2023-07-02T10:43:11;26.90;50.00
16517;DHT22;8371;52.272;9.746;2023-07-02T10:45:37;26.90;49.80
16517;DHT22;8371;52.272;9.746;2023-07-02T10:48:04;26.80;49.90
16517;DHT22;8371;52.272;9.746;2023-07-02T10:50:31;26.70;50.20
16517;DHT22;8371;52.272;9.746;2023-07-02T10:52:57;26.60;50.10
16517;DHT22;8371;52.272;9.746;2023-07-02T10:55:24;26.50;49.50
16517;DHT22;8371;52.272;9.746;2023-07-02T10:57:50;26.40;48.80
16517;DHT22;8371;52.272;9.746;2023-07-02T11:00:17;26.30;49.50
16517;DHT22;8371;52.272;9.746;2023-07-02T11:02:43;26.10;49.60
16517;DHT22;8371;52.272;9.746;2023-07-02T11:05:09;26.00;49.10
16517;DHT22;8371;52.272;9.746;2023-07-02T11:07:44;25.90;49.70
16517;DHT22;8371;52.272;9.746;2023-07-02T11:10:08;25.90;49.60
16517;DHT22;8371;52.272;9.746;2023-07-02T11:12:34;25.80;48.80
16517;DHT22;8371;52.272;9.746;2023-07-02T11:15:07;25.80;49.60
16517;DHT22;8371;52.272;9.746;2023-07-02T11:17:34;25.70;49.60
16517;DHT22;8371;52.272;9.746;2023-07-02T11:19:59;25.60;50.20
16517;DHT22;8371;52.272;9.746;2023-07-02T11:22:32;25.60;50.00
16517;DHT22;8371;52.272;9.746;2023-07-02T11:25:10;25.60;50.30
16517;DHT22;8371;52.272;9.746;2023-07-02T11:27:36;25.60;50.50
16517;DHT22;8371;52.272;9.746;2023-07-02T11:30:02;25.60;51.10
16517;DHT22;8371;52.272;9.746;2023-07-02T11:32:28;25.70;49.90
16517;DHT22;8371;52.272;9.746;2023-07-02T11:34:54;25.80;49.60
16517;DHT22;8371;52.272;9.746;2023-07-02T11:37:20;25.90;49.70
16517;DHT22;8371;52.272;9.746;2023-07-02T11:39:46;26.00;49.00
16517;DHT22;8371;52.272;9.746;2023-07-02T11:42:11;25.90;48.30
16517;DHT22;8371;52.272;9.746;2023-07-02T11:44:37;25.80;47.60
16517;DHT22;8371;52.272;9.746;2023-07-02T11:47:03;25.80;47.90
16517;DHT22;8371;52.272;9.746;2023-07-02T11:49:29;25.70;48.20
16517;DHT22;8371;52.272;9.746;2023-07-02T11:51:55;25.70;49.20
16517;DHT22;8371;52.272;9.746;2023-07-02T11:54:20;25.70;48.90
16517;DHT22;8371;52.272;9.746;2023-07-02T11:56:46;25.90;49.50
16517;DHT22;8371;52.272;9.746;2023-07-02T11:59:12;26.00;49.40
16517;DHT22;8371;52.272;9.746;2023-07-02T12:01:37;26.20;49.10
16517;DHT22;8371;52.272;9.746;2023-07-02T12:04:04;26.20;48.30
16517;DHT22;8371;52.272;9.746;2023-07-02T12:06:31;26.30;48.20
16517;DHT22;8371;52.272;9.746;2023-07-02T12:08:56;26.30;48.10
16517;DHT22;8371;52.272;9.746;2023-07-02T12:11:22;26.20;48.10
16517;DHT22;8371;52.272;9.746;2023-07-02T12:13:48;26.10;47.90
16517;DHT22;8371;52.272;9.746;2023-07-02T12:16:13;26.10;48.20
16517;DHT22;8371;52.272;9.746;2023-07-02T12:18:39;26.10;47.70
16517;DHT22;8371;52.272;9.746;2023-07-02T12:21:05;26.00;47.90
16517;DHT22;8371;52.272;9.746;2023-07-02T12:23:30;26.00;48.50
16517;DHT22;8371;52.272;9.746;2023-07-02T12:25:56;26.10;48.10
16517;DHT22;8371;52.272;9.746;2023-07-02T12:28:22;26.10;47.90
16517;DHT22;8371;52.272;9.746;2023-07-02T12:30:47;26.40;47.60
16517;DHT22;8371;52.272;9.746;2023-07-02T12:33:13;26.20;47.80
16517;DHT22;8371;52.272;9.746;2023-07-02T12:35:39;26.30;48.20
16517;DHT22;8371;52.272;9.746;2023-07-02T12:38:04;26.30;48.20
16517;DHT22;8371;52.272;9.746;2023-07-02T12:40:32;26.30;47.90
16517;DHT22;8371;52.272;9.746;2023-07-02T12:42:58;26.40;47.00
16517;DHT22;8371;52.272;9.746;2023-07-02T12:45:23;26.40;47.30
16517;DHT22;8371;52.272;9.746;2023-07-02T12:47:49;26.50;47.90
16517;DHT22;8371;52.272;9.746;2023-07-02T12:50:15;26.60;48.60
16517;DHT22;8371;52.272;9.746;2023-07-02T12:52:40;26.80;47.30
16517;DHT22;8371;52.272;9.746;2023-07-02T12:55:07;26.90;47.60
16517;DHT22;8371;52.272;9.746;2023-07-02T12:57:32;27.10;47.70
16517;DHT22;8371;52.272;9.746;2023-07-02T12:59:58;27.30;47.00
16517;DHT22;8371;52.272;9.746;2023-07-02T13:02:24;27.40;46.70
16517;DHT22;8371;52.272;9.746;2023-07-02T13:04:50;27.60;46.80
16517;DHT22;8371;52.272;9.746;2023-07-02T13:07:16;27.60;46.40
16517;DHT22;8371;52.272;9.746;2023-07-02T13:09:42;27.70;46.20
16517;DHT22;8371;52.272;9.746;2023-07-02T13:12:09;27.80;46.30
16517;DHT22;8371;52.272;9.746;2023-07-02T13:14:35;28.00;46.30
16517;DHT22;8371;52.272;9.746;2023-07-02T13:17:01;28.10;46.10
16517;DHT22;8371;52.272;9.746;2023-07-02T13:19:28;28.20;46.00
16517;DHT22;8371;52.272;9.746;2023-07-02T13:21:54;28.30;45.60
16517;DHT22;8371;52.272;9.746;2023-07-02T13:24:21;28.40;44.80
16517;DHT22;8371;52.272;9.746;2023-07-02T13:26:46;28.40;44.40
16517;DHT22;8371;52.272;9.746;2023-07-02T13:29:12;28.20;44.00
16517;DHT22;8371;52.272;9.746;2023-07-02T13:31:37;28.10;44.30
16517;DHT22;8371;52.272;9.746;2023-07-02T13:34:03;27.90;43.90
16517;DHT22;8371;52.272;9.746;2023-07-02T13:36:29;27.70;44.20
16517;DHT22;8371;52.272;9.746;2023-07-02T13:38:55;27.60;44.00
16517;DHT22;8371;52.272;9.746;2023-07-02T13:41:21;27.50;44.00
16517;DHT22;8371;52.272;9.746;2023-07-02T13:43:47;27.40;44.30
16517;DHT22;8371;52.272;9.746;2023-07-02T13:46:12;27.20;45.30
16517;DHT22;8371;52.272;9.746;2023-07-02T13:48:38;27.20;44.90
16517;DHT22;8371;52.272;9.746;2023-07-02T13:51:04;27.30;44.40
16517;DHT22;8371;52.272;9.746;2023-07-02T13:53:30;27.30;45.40
16517;DHT22;8371;52.272;9.746;2023-07-02T13:55:55;27.50;45.10
16517;DHT22;8371;52.272;9.746;2023-07-02T13:58:22;27.60;44.80
16517;DHT22;8371;52.272;9.746;2023-07-02T14:00:48;27.80;45.00
16517;DHT22;8371;52.272;9.746;2023-07-02T14:03:14;27.90;45.00
16517;DHT22;8371;52.272;9.746;2023-07-02T14:05:40;28.10;44.40
16517;DHT22;8371;52.272;9.746;2023-07-02T14:08:07;28.20;44.50
16517;DHT22;8371;52.272;9.746;2023-07-02T14:10:33;28.30;43.20
16517;DHT22;8371;52.272;9.746;2023-07-02T14:12:58;28.40;43.20
16517;DHT22;8371;52.272;9.746;2023-07-02T14:15:25;28.50;43.70
16517;DHT22;8371;52.272;9.746;2023-07-02T14:17:51;28.60;42.80
16517;DHT22;8371;52.272;9.746;2023-07-02T14:20:17;28.70;42.40
16517;DHT22;8371;52.272;9.746;2023-07-02T14:22:42;28.80;42.80
16517;DHT22;8371;52.272;9.746;2023-07-02T14:25:09;28.80;42.40
16517;DHT22;8371;52.272;9.746;2023-07-02T14:27:34;28.80;42.10
16517;DHT22;8371;52.272;9.746;2023-07-02T14:30:00;29.00;41.90
16517;DHT22;8371;52.272;9.746;2023-07-02T14:32:28;29.20;42.00
16517;DHT22;8371;52.272;9.746;2023-07-02T14:34:54;29.40;41.70
16517;DHT22;8371;52.272;9.746;2023-07-02T14:37:24;29.20;41.90
16517;DHT22;8371;52.272;9.746;2023-07-02T14:39:47;29.20;41.00
16517;DHT22;8371;52.272;9.746;2023-07-02T14:42:13;29.20;40.80
16517;DHT22;8371;52.272;9.746;2023-07-02T14:44:39;29.20;40.50
16517;DHT22;8371;52.272;9.746;2023-07-02T14:47:06;29.10;40.10
16517;DHT22;8371;52.272;9.746;2023-07-02T14:49:32;29.10;40.00
16517;DHT22;8371;52.272;9.746;2023-07-02T14:51:58;29.10;40.30
16517;DHT22;8371;52.272;9.746;2023-07-02T14:54:23;29.10;40.10
16517;DHT22;8371;52.272;9.746;2023-07-02T14:56:49;28.90;39.40
16517;DHT22;8371;52.272;9.746;2023-07-02T14:59:17;28.90;39.80
16517;DHT22;8371;52.272;9.746;2023-07-02T15:01:42;28.80;39.40
16517;DHT22;8371;52.272;9.746;2023-07-02T15:04:08;28.70;39.50
16517;DHT22;8371;52.272;9.746;2023-07-02T15:06:35;28.50;39.60
16517;DHT22;8371;52.272;9.746;2023-07-02T15:09:00;28.40;39.50
16517;DHT22;8371;52.272;9.746;2023-07-02T15:11:26;28.30;39.80
16517;DHT22;8371;52.272;9.746;2023-07-02T15:13:53;28.20;39.70
16517;DHT22;8371;52.272;9.746;2023-07-02T15:16:19;28.10;39.60
16517;DHT22;8371;52.272;9.746;2023-07-02T15:18:45;28.00;39.50
16517;DHT22;8371;52.272;9.746;2023-07-02T15:21:11;27.80;39.40
16517;DHT22;8371;52.272;9.746;2023-07-02T15:23:37;27.80;39.70
16517;DHT22;8371;52.272;9.746;2023-07-02T15:26:04;27.80;40.20
16517;DHT22;8371;52.272;9.746;2023-07-02T15:28:31;27.70;39.90
16517;DHT22;8371;52.272;9.746;2023-07-02T15:30:59;27.80;40.20
16517;DHT22;8371;52.272;9.746;2023-07-02T15:33:26;27.70;40.30
16517;DHT22;8371;52.272;9.746;2023-07-02T15:35:51;27.80;40.00
16517;DHT22;8371;52.272;9.746;2023-07-02T15:38:18;27.70;39.80
16517;DHT22;8371;52.272;9.746;2023-07-02T15:40:46;27.70;39.20
16517;DHT22;8371;52.272;9.746;2023-07-02T15:43:11;27.70;39.80